Time;durP1;ratioP1;P1;durP2;ratioP2;P2;SDS_P1;SDS_P2;PMS_P1;PMS_P2;Temp;Humidity;BMP_temperature;BMP_pressure;BME280_temperature;BME280_humidity;BME280_pressure;Samples;Min_cycle;Max_cycle;Signal;HPM_P1;HPM_P2
2023/04/28 00:02:15;;;;;;;29.17;9.35;;;18.90;99.90;;;;;;5043736;28;20028;-68
2023/04/28 00:04:43;;;;;;;22.90;6.68;;;19.10;99.90;;;;;;5031418;28;20021;-69
2023/04/28 00:07:10;;;;;;;28.25;7.72;;;19.40;99.90;;;;;;5046993;28;20159;-69
2023/04/28 00:09:38;;;;;;;22.77;8.50;;;19.50;99.90;;;;;;5038865;28;20092;-69
2023/04/28 00:12:05;;;;;;;10.10;3.72;;;19.70;99.90;;;;;;5044198;28;20028;-67
2023/04/28 00:14:33;;;;;;;13.75;3.38;;;19.80;99.90;;;;;;5046742;28;20029;-69
2023/04/28 00:17:02;;;;;;;13.85;4.40;;;19.90;99.90;;;;;;5024769;28;20045;-70
2023/04/28 00:19:29;;;;;;;6.40;2.80;;;20.20;99.90;;;;;;5031656;28;20033;-69
2023/04/28 00:21:57;;;;;;;6.68;2.80;;;20.50;99.90;;;;;;5048460;28;20086;-66
2023/04/28 00:24:24;;;;;;;11.15;3.17;;;20.70;99.90;;;;;;5049148;28;20070;-66
2023/04/28 00:26:51;;;;;;;11.48;3.65;;;20.80;99.90;;;;;;5051366;28;20104;-67
2023/04/28 00:29:19;;;;;;;16.55;4.10;;;21.00;99.90;;;;;;5042156;28;20550;-66
2023/04/28 00:31:46;;;;;;;10.93;4.47;;;21.20;99.90;;;;;;5018595;28;20029;-66
2023/04/28 00:34:14;;;;;;;11.38;4.07;;;21.40;99.90;;;;;;5046820;28;20111;-67
2023/04/28 00:36:41;;;;;;;11.45;3.22;;;21.60;99.90;;;;;;5036632;28;20017;-66
2023/04/28 00:39:09;;;;;;;8.00;2.33;;;21.80;99.90;;;;;;5051640;28;20108;-68
2023/04/28 00:41:36;;;;;;;7.38;2.40;;;22.00;99.90;;;;;;5020995;28;20120;-68
2023/04/28 00:44:04;;;;;;;8.57;2.70;;;22.20;99.90;;;;;;5045569;28;20033;-69
2023/04/28 00:46:33;;;;;;;8.63;2.63;;;22.30;99.90;;;;;;5016745;28;20045;-68
2023/04/28 00:49:01;;;;;;;12.82;4.05;;;22.30;99.90;;;;;;5043319;28;20033;-67
2023/04/28 00:51:28;;;;;;;14.77;5.43;;;22.50;99.90;;;;;;5035740;28;20048;-67
2023/04/28 00:53:57;;;;;;;8.63;3.30;;;22.40;99.90;;;;;;5053674;28;20029;-68
2023/04/28 00:56:29;;;;;;;13.77;3.10;;;22.40;99.90;;;;;;5054321;28;20025;-63
2023/04/28 00:58:58;;;;;;;6.10;2.45;;;22.50;99.90;;;;;;5022055;28;20112;-68
2023/04/28 01:01:25;;;;;;;6.97;1.83;;;22.60;99.90;;;;;;5029844;28;20035;-67
2023/04/28 01:03:53;;;;;;;7.38;2.00;;;22.80;99.90;;;;;;5036998;28;20029;-68
2023/04/28 01:06:20;;;;;;;3.85;1.55;;;23.00;99.90;;;;;;5044503;28;20525;-67
2023/04/28 01:08:52;;;;;;;3.97;1.40;;;23.20;99.90;;;;;;5042876;28;20051;-67
2023/04/28 01:11:19;;;;;;;6.90;1.63;;;23.30;99.90;;;;;;5023513;28;20036;-67
2023/04/28 01:13:47;;;;;;;5.35;1.55;;;23.60;99.90;;;;;;5035342;28;20022;-67
2023/04/28 01:16:14;;;;;;;5.95;1.70;;;23.60;99.90;;;;;;5044502;28;20029;-68
2023/04/28 01:18:47;;;;;;;6.03;1.85;;;23.80;99.90;;;;;;5044638;28;20492;-70
2023/04/28 01:21:24;;;;;;;4.47;1.77;;;23.90;99.90;;;;;;5038700;28;20032;-66
2023/04/28 01:23:52;;;;;;;5.60;1.80;;;24.20;99.90;;;;;;5040943;28;20424;-67
2023/04/28 01:26:20;;;;;;;4.78;1.20;;;24.40;99.90;;;;;;5029030;28;20021;-65
2023/04/28 01:28:47;;;;;;;3.72;1.20;;;24.60;99.90;;;;;;5040546;28;20021;-66
2023/04/28 01:31:15;;;;;;;5.28;1.00;;;24.80;99.90;;;;;;5045793;28;20652;-66
2023/04/28 01:33:43;;;;;;;5.93;1.40;;;25.00;99.90;;;;;;5045583;28;20548;-68
2023/04/28 01:36:10;;;;;;;3.53;1.33;;;25.20;99.90;;;;;;5011276;28;20183;-66
2023/04/28 01:38:38;;;;;;;2.58;1.05;;;25.40;99.90;;;;;;5040214;28;20032;-60
2023/04/28 01:41:05;;;;;;;5.10;1.10;;;25.70;99.90;;;;;;5038300;28;20049;-59
2023/04/28 01:43:33;;;;;;;3.80;1.17;;;25.90;99.90;;;;;;5023948;28;20021;-61
2023/04/28 01:46:00;;;;;;;5.00;1.00;;;26.10;99.90;;;;;;5030550;28;20029;-59
2023/04/28 01:48:28;;;;;;;1.95;1.00;;;26.50;99.90;;;;;;5040047;28;20033;-59
2023/04/28 01:50:55;;;;;;;1.98;0.70;;;26.60;99.90;;;;;;5044038;28;20029;-59
2023/04/28 01:53:23;;;;;;;2.08;0.63;;;26.70;99.90;;;;;;5037945;28;20382;-60
2023/04/28 01:55:50;;;;;;;3.33;1.05;;;26.70;99.90;;;;;;5043360;28;20060;-59
2023/04/28 01:58:18;;;;;;;4.93;1.85;;;26.80;99.40;;;;;;5041578;28;20021;-59
2023/04/28 02:00:45;;;;;;;2.83;0.80;;;26.90;98.50;;;;;;5025549;28;20377;-59
2023/04/28 02:03:13;;;;;;;4.97;1.08;;;26.90;97.90;;;;;;5018063;28;20036;-60
2023/04/28 02:05:40;;;;;;;3.83;0.70;;;27.00;95.50;;;;;;5037527;28;20017;-59
2023/04/28 02:08:08;;;;;;;2.97;0.90;;;26.70;96.70;;;;;;5039517;28;20040;-59
2023/04/28 02:10:35;;;;;;;2.78;0.80;;;26.60;97.20;;;;;;5022518;28;20032;-59
2023/04/28 02:13:03;;;;;;;6.95;1.17;;;26.60;97.00;;;;;;5042938;28;20496;-59
2023/04/28 02:15:30;;;;;;;2.90;0.70;;;26.50;97.50;;;;;;5038303;28;20433;-62
2023/04/28 02:17:58;;;;;;;2.13;0.73;;;26.60;98.20;;;;;;5008045;28;20025;-59
2023/04/28 02:20:26;;;;;;;2.33;1.15;;;26.60;97.80;;;;;;5037560;28;20021;-60
2023/04/28 02:22:54;;;;;;;5.35;0.80;;;26.70;98.70;;;;;;5038228;28;20029;-59
2023/04/28 02:25:21;;;;;;;5.93;1.30;;;26.80;96.40;;;;;;5036245;28;20032;-59
2023/04/28 02:27:49;;;;;;;1.85;0.82;;;26.90;97.60;;;;;;5031725;28;20033;-60
2023/04/28 02:30:16;;;;;;;4.57;0.85;;;26.90;96.20;;;;;;5042438;28;20021;-59
2023/04/28 02:32:44;;;;;;;2.50;1.15;;;27.00;94.60;;;;;;5029451;28;20022;-59
2023/04/28 02:35:11;;;;;;;1.52;0.60;;;27.10;96.10;;;;;;5036991;28;20040;-59
2023/04/28 02:37:39;;;;;;;1.85;0.60;;;27.10;95.70;;;;;;5043229;28;20039;-60
2023/04/28 02:40:07;;;;;;;1.85;0.70;;;27.00;92.60;;;;;;5031688;28;20467;-59
2023/04/28 02:42:34;;;;;;;2.53;0.80;;;27.10;93.20;;;;;;5039992;28;20470;-59
2023/04/28 02:45:02;;;;;;;3.42;0.90;;;27.10;91.20;;;;;;5045726;28;20033;-59
2023/04/28 02:47:29;;;;;;;2.33;0.88;;;27.10;90.20;;;;;;5037238;28;20559;-60
2023/04/28 02:49:57;;;;;;;1.13;0.55;;;27.20;91.10;;;;;;5034676;28;20060;-59
2023/04/28 02:52:24;;;;;;;1.67;0.65;;;27.30;89.40;;;;;;5035847;28;20060;-62
2023/04/28 02:54:55;;;;;;;0.98;0.65;;;27.40;87.20;;;;;;5044150;28;20034;-59
2023/04/28 02:57:23;;;;;;;1.05;0.60;;;27.40;86.60;;;;;;5036562;28;20072;-59
2023/04/28 02:59:51;;;;;;;4.35;0.68;;;27.40;86.20;;;;;;5044212;28;20268;-59
2023/04/28 03:02:19;;;;;;;0.77;0.57;;;27.50;85.10;;;;;;5042797;28;20018;-58
2023/04/28 03:04:46;;;;;;;2.75;0.77;;;27.50;83.00;;;;;;5032550;28;20075;-59
2023/04/28 03:07:14;;;;;;;2.08;0.70;;;27.70;83.70;;;;;;5048367;28;20617;-59
2023/04/28 03:09:41;;;;;;;3.22;0.60;;;27.70;82.20;;;;;;5049819;28;20037;-59
2023/04/28 03:12:09;;;;;;;2.28;0.70;;;27.70;82.00;;;;;;5038078;28;20033;-59
2023/04/28 03:14:36;;;;;;;2.45;0.70;;;27.80;83.40;;;;;;5049368;28;20501;-59
2023/04/28 03:17:04;;;;;;;2.20;0.70;;;27.80;80.40;;;;;;5025843;28;20029;-59
2023/04/28 03:19:32;;;;;;;5.25;0.70;;;27.70;80.00;;;;;;5026819;28;20037;-59
2023/04/28 03:21:59;;;;;;;2.17;0.80;;;27.80;79.40;;;;;;5040829;28;20021;-58
2023/04/28 03:24:27;;;;;;;1.90;0.60;;;27.80;81.10;;;;;;5042391;28;20025;-60
2023/04/28 03:26:54;;;;;;;1.23;0.80;;;27.90;79.50;;;;;;5044227;28;20025;-62
2023/04/28 03:29:23;;;;;;;3.33;0.98;;;27.90;78.90;;;;;;5047553;28;20078;-59
2023/04/28 03:31:50;;;;;;;5.25;0.70;;;27.90;79.00;;;;;;5050838;28;20048;-59
2023/04/28 03:34:18;;;;;;;6.15;1.15;;;27.90;77.50;;;;;;5045678;28;20025;-59
2023/04/28 03:36:45;;;;;;;4.35;0.60;;;27.90;78.10;;;;;;5046680;28;20029;-59
2023/04/28 03:39:13;;;;;;;2.17;0.70;;;27.90;75.70;;;;;;5041566;28;20025;-59
2023/04/28 03:41:40;;;;;;;3.72;1.77;;;27.80;75.60;;;;;;5047043;28;20021;-59
2023/04/28 03:44:08;;;;;;;2.35;0.82;;;28.00;77.10;;;;;;5044908;28;20512;-59
2023/04/28 03:46:35;;;;;;;1.92;1.13;;;28.00;78.60;;;;;;5046417;28;20040;-59
2023/04/28 03:49:03;;;;;;;3.15;1.20;;;28.10;76.70;;;;;;5025478;28;20401;-59
2023/04/28 03:51:31;;;;;;;3.97;1.27;;;28.00;75.50;;;;;;5044406;28;20017;-60
2023/04/28 03:53:59;;;;;;;1.70;0.90;;;28.00;77.00;;;;;;5040996;28;20104;-59
2023/04/28 03:56:27;;;;;;;9.07;1.13;;;28.10;74.90;;;;;;5028054;28;20044;-59
2023/04/28 03:58:54;;;;;;;1.90;0.60;;;28.10;73.80;;;;;;5046335;28;20029;-64
2023/04/28 04:01:21;;;;;;;2.58;0.80;;;28.00;76.10;;;;;;5032346;28;20432;-59
2023/04/28 04:03:49;;;;;;;2.95;1.13;;;28.10;74.50;;;;;;5047696;28;20017;-58
2023/04/28 04:06:17;;;;;;;6.03;1.55;;;28.10;74.70;;;;;;5043317;28;20025;-59
2023/04/28 04:08:44;;;;;;;3.20;1.10;;;28.00;72.80;;;;;;5046353;28;20029;-61
2023/04/28 04:11:12;;;;;;;2.75;0.90;;;27.90;74.20;;;;;;5029037;28;20028;-62
2023/04/28 04:13:39;;;;;;;2.30;0.90;;;28.00;75.00;;;;;;5050485;28;20017;-62
2023/04/28 04:16:07;;;;;;;1.20;0.50;;;28.00;74.30;;;;;;5050943;28;20511;-60
2023/04/28 04:18:35;;;;;;;2.08;0.90;;;27.90;73.70;;;;;;5051113;28;20033;-60
2023/04/28 04:21:02;;;;;;;1.38;0.68;;;27.80;74.00;;;;;;5032581;28;20495;-61
2023/04/28 04:23:30;;;;;;;2.50;1.02;;;27.80;73.90;;;;;;5051187;28;20028;-61
2023/04/28 04:25:57;;;;;;;2.42;1.05;;;27.80;74.60;;;;;;5051603;28;20029;-61
2023/04/28 04:28:25;;;;;;;3.92;1.20;;;27.90;74.20;;;;;;5051621;28;20436;-61
2023/04/28 04:30:52;;;;;;;3.10;0.93;;;27.80;74.40;;;;;;5051922;28;20021;-61
2023/04/28 04:33:20;;;;;;;4.00;1.48;;;27.70;74.20;;;;;;5051637;28;20048;-60
2023/04/28 04:35:47;;;;;;;3.67;0.88;;;27.60;74.10;;;;;;5051155;28;20060;-60
2023/04/28 04:38:15;;;;;;;2.10;0.70;;;27.50;74.70;;;;;;5051293;28;20737;-61
2023/04/28 04:40:42;;;;;;;5.75;0.77;;;27.40;74.20;;;;;;5051256;28;20109;-61
2023/04/28 04:43:10;;;;;;;3.72;1.25;;;27.40;75.10;;;;;;5033468;28;20072;-61
2023/04/28 04:45:38;;;;;;;2.45;1.58;;;27.30;75.80;;;;;;5031482;28;20028;-60
2023/04/28 04:48:05;;;;;;;3.35;0.80;;;27.30;75.70;;;;;;5050942;28;20083;-61
2023/04/28 04:50:33;;;;;;;2.85;1.13;;;27.20;75.90;;;;;;5033058;28;20029;-60
2023/04/28 04:53:00;;;;;;;2.72;0.90;;;27.00;76.20;;;;;;5027048;28;20031;-61
2023/04/28 04:55:28;;;;;;;4.00;1.77;;;26.90;76.40;;;;;;5035437;28;20112;-62
2023/04/28 04:57:55;;;;;;;2.75;0.90;;;26.90;78.20;;;;;;5045256;28;20020;-63
2023/04/28 05:00:23;;;;;;;4.80;1.00;;;26.90;79.20;;;;;;5033107;28;20037;-62
2023/04/28 05:02:50;;;;;;;1.92;0.93;;;26.70;78.50;;;;;;5042227;28;20398;-62
2023/04/28 05:05:18;;;;;;;3.63;1.30;;;26.70;78.30;;;;;;5032179;28;20032;-62
2023/04/28 05:07:45;;;;;;;1.48;0.88;;;26.60;79.00;;;;;;5018760;28;20099;-62
2023/04/28 05:10:13;;;;;;;2.25;0.90;;;26.60;79.50;;;;;;5030646;28;20026;-62
2023/04/28 05:12:40;;;;;;;2.17;1.05;;;26.60;80.60;;;;;;5012934;28;20028;-62
2023/04/28 05:15:08;;;;;;;4.43;0.90;;;26.50;80.60;;;;;;5042078;28;20041;-62
2023/04/28 05:17:35;;;;;;;4.38;1.10;;;26.40;80.60;;;;;;5045469;28;20481;-62
2023/04/28 05:20:04;;;;;;;5.30;1.65;;;26.40;80.70;;;;;;5049379;28;20119;-62
2023/04/28 05:22:31;;;;;;;9.57;1.60;;;26.30;80.80;;;;;;5048810;28;20024;-62
2023/04/28 05:24:59;;;;;;;2.65;1.02;;;26.30;82.40;;;;;;5048195;28;20036;-62
2023/04/28 05:27:26;;;;;;;3.25;1.00;;;26.30;82.30;;;;;;5029493;28;20162;-64
2023/04/28 05:29:53;;;;;;;2.65;1.48;;;26.30;81.50;;;;;;5049984;28;20495;-65
2023/04/28 05:32:21;;;;;;;2.55;1.00;;;26.20;82.20;;;;;;5032487;28;20029;-64
2023/04/28 05:34:48;;;;;;;3.08;0.90;;;26.00;82.50;;;;;;5024842;28;20504;-61
2023/04/28 05:37:16;;;;;;;1.88;0.90;;;25.80;82.40;;;;;;5042870;28;20021;-61
2023/04/28 05:39:43;;;;;;;1.50;1.08;;;25.60;83.70;;;;;;5037725;28;20036;-62
2023/04/28 05:42:11;;;;;;;4.30;1.10;;;25.40;84.80;;;;;;5032127;28;20021;-60
2023/04/28 05:44:38;;;;;;;3.10;1.00;;;25.30;86.60;;;;;;5038321;28;20026;-62
2023/04/28 05:47:06;;;;;;;1.35;0.88;;;25.10;87.20;;;;;;5029990;28;20045;-63
2023/04/28 05:49:33;;;;;;;4.38;1.30;;;25.00;88.90;;;;;;5030125;28;20436;-64
2023/04/28 05:52:01;;;;;;;3.22;1.20;;;25.00;89.60;;;;;;5030033;28;20112;-65
2023/04/28 05:54:28;;;;;;;2.33;1.13;;;24.90;89.80;;;;;;5029859;28;20037;-63
2023/04/28 05:56:56;;;;;;;2.28;1.30;;;24.90;90.50;;;;;;5041417;28;20458;-62
2023/04/28 05:59:24;;;;;;;3.00;1.33;;;24.80;91.00;;;;;;5049927;28;20087;-67
2023/04/28 06:01:51;;;;;;;7.28;1.95;;;24.80;90.70;;;;;;5032274;28;20043;-63
2023/04/28 06:04:19;;;;;;;4.78;2.10;;;24.70;91.50;;;;;;5031513;28;20025;-64
2023/04/28 06:06:47;;;;;;;5.47;2.70;;;24.60;91.40;;;;;;5049758;28;20104;-65
2023/04/28 06:09:14;;;;;;;4.80;2.75;;;24.50;91.70;;;;;;5030750;28;20029;-63
2023/04/28 06:11:42;;;;;;;4.00;2.08;;;24.50;91.60;;;;;;5031684;28;20397;-66
2023/04/28 06:14:09;;;;;;;4.32;2.63;;;24.50;92.00;;;;;;5049619;28;20123;-66
2023/04/28 06:16:36;;;;;;;3.42;2.80;;;24.40;92.30;;;;;;5049641;28;20025;-66
2023/04/28 06:19:04;;;;;;;6.30;3.40;;;24.40;92.30;;;;;;5048966;28;20485;-65
2023/04/28 06:21:32;;;;;;;7.20;3.65;;;24.30;92.70;;;;;;5049473;28;20020;-66
2023/04/28 06:24:00;;;;;;;7.10;4.07;;;24.30;92.70;;;;;;5031618;28;20029;-66
2023/04/28 06:26:28;;;;;;;10.00;4.47;;;24.30;92.40;;;;;;5031817;28;20470;-65
2023/04/28 06:28:55;;;;;;;8.68;5.13;;;24.30;93.40;;;;;;5049656;28;20474;-64
2023/04/28 06:31:26;;;;;;;11.48;6.13;;;24.20;93.00;;;;;;5030658;28;20033;-66
2023/04/28 06:33:54;;;;;;;9.98;5.72;;;24.10;93.10;;;;;;5049751;28;20079;-67
2023/04/28 06:36:21;;;;;;;12.38;5.93;;;24.00;93.60;;;;;;5032028;28;20405;-66
2023/04/28 06:38:49;;;;;;;10.32;5.60;;;23.90;93.80;;;;;;5049336;28;20017;-66
2023/04/28 06:41:16;;;;;;;9.85;5.50;;;23.80;93.80;;;;;;5030505;28;20159;-65
2023/04/28 06:43:44;;;;;;;10.63;5.63;;;23.80;94.30;;;;;;5052603;28;20078;-66
2023/04/28 06:46:11;;;;;;;10.38;5.05;;;23.70;94.30;;;;;;5053188;28;20127;-66
2023/04/28 06:48:39;;;;;;;15.00;5.03;;;23.70;94.80;;;;;;5032862;28;20056;-66
2023/04/28 06:51:06;;;;;;;8.30;4.72;;;23.60;95.10;;;;;;5053298;28;20155;-66
2023/04/28 06:53:34;;;;;;;7.90;4.38;;;23.50;95.30;;;;;;5053052;28;20032;-67
2023/04/28 06:56:01;;;;;;;7.50;4.85;;;23.40;95.90;;;;;;5053197;28;20033;-66
2023/04/28 06:58:29;;;;;;;9.52;5.28;;;23.30;96.50;;;;;;5051991;28;20103;-62
2023/04/28 07:00:56;;;;;;;6.28;4.28;;;23.20;97.00;;;;;;5035238;28;20122;-65
2023/04/28 07:03:24;;;;;;;9.15;4.90;;;23.10;97.80;;;;;;5052734;28;20031;-66
2023/04/28 07:05:51;;;;;;;6.70;4.50;;;23.00;98.60;;;;;;5053497;28;20144;-66
2023/04/28 07:08:19;;;;;;;7.25;4.78;;;22.90;98.60;;;;;;5034914;28;20474;-66
2023/04/28 07:10:46;;;;;;;8.80;4.28;;;22.90;99.20;;;;;;5053074;28;20024;-65
2023/04/28 07:13:14;;;;;;;5.78;3.63;;;22.80;99.90;;;;;;5051659;28;20112;-65
2023/04/28 07:15:41;;;;;;;8.30;4.03;;;22.70;99.90;;;;;;5052848;28;20036;-66
2023/04/28 07:18:09;;;;;;;6.65;4.20;;;22.60;99.90;;;;;;5052525;28;20021;-65
2023/04/28 07:20:36;;;;;;;8.73;3.92;;;22.50;99.90;;;;;;5032684;28;20994;-66
2023/04/28 07:23:04;;;;;;;5.90;3.40;;;22.40;99.90;;;;;;5052586;28;20056;-66
2023/04/28 07:25:32;;;;;;;5.82;3.70;;;22.30;99.90;;;;;;5052747;28;20520;-64
2023/04/28 07:28:02;;;;;;;4.72;3.13;;;22.30;99.90;;;;;;5034738;28;20036;-64
2023/04/28 07:30:29;;;;;;;8.52;4.30;;;22.20;99.90;;;;;;5052023;28;20023;-63
2023/04/28 07:32:57;;;;;;;6.97;3.65;;;22.00;99.90;;;;;;5052373;28;20053;-64
2023/04/28 07:35:25;;;;;;;7.88;4.03;;;21.90;99.90;;;;;;5052929;28;20033;-64
2023/04/28 07:37:53;;;;;;;7.95;3.95;;;21.80;99.90;;;;;;5051499;28;20424;-64
2023/04/28 07:40:21;;;;;;;8.30;3.67;;;21.70;99.90;;;;;;5052930;28;20024;-62
2023/04/28 07:42:49;;;;;;;7.65;3.90;;;21.60;99.90;;;;;;5051030;28;20021;-63
2023/04/28 07:45:17;;;;;;;8.32;4.00;;;21.50;99.90;;;;;;5033153;28;20123;-62
2023/04/28 07:47:44;;;;;;;6.68;3.42;;;21.40;99.90;;;;;;5030848;28;20050;-63
2023/04/28 07:50:12;;;;;;;14.88;5.38;;;21.30;99.90;;;;;;5030149;28;20025;-61
2023/04/28 07:52:39;;;;;;;10.10;4.40;;;21.10;99.90;;;;;;5028324;28;20053;-64
2023/04/28 07:55:07;;;;;;;8.15;4.00;;;21.00;99.90;;;;;;5041227;28;20042;-63
2023/04/28 07:57:35;;;;;;;7.70;3.65;;;20.90;99.90;;;;;;5020685;28;20022;-63
2023/04/28 08:00:04;;;;;;;6.85;3.45;;;20.70;99.90;;;;;;5019425;28;20026;-62
2023/04/28 08:02:33;;;;;;;6.35;3.40;;;20.60;99.90;;;;;;5022187;28;20017;-62
2023/04/28 08:05:00;;;;;;;7.70;3.47;;;20.50;99.90;;;;;;5023152;28;20033;-61
2023/04/28 08:07:29;;;;;;;6.57;3.30;;;20.40;99.90;;;;;;5026609;28;20026;-62
2023/04/28 08:09:56;;;;;;;6.88;2.90;;;20.30;99.90;;;;;;5023542;28;20395;-62
2023/04/28 08:12:23;;;;;;;4.93;2.80;;;20.20;99.90;;;;;;5023064;28;20079;-57
2023/04/28 08:14:51;;;;;;;10.07;4.47;;;20.20;99.90;;;;;;5020692;28;20029;-62
2023/04/28 08:17:18;;;;;;;7.35;3.35;;;20.10;99.90;;;;;;5029460;28;20087;-63
2023/04/28 08:19:46;;;;;;;10.23;3.38;;;20.00;99.90;;;;;;5012228;28;20022;-62
2023/04/28 08:22:13;;;;;;;5.32;2.92;;;19.90;99.90;;;;;;5009569;28;20018;-63
2023/04/28 08:24:41;;;;;;;4.40;2.60;;;19.90;99.90;;;;;;5009291;28;20030;-63
2023/04/28 08:27:09;;;;;;;6.03;2.90;;;19.80;99.90;;;;;;5009458;28;20075;-63
2023/04/28 08:29:36;;;;;;;5.93;2.58;;;19.80;99.90;;;;;;5013518;28;20493;-62
2023/04/28 08:32:05;;;;;;;3.60;2.13;;;19.80;99.90;;;;;;5013450;28;20049;-62
2023/04/28 08:34:33;;;;;;;6.47;2.25;;;19.80;99.90;;;;;;5009655;28;20070;-62
2023/04/28 08:37:01;;;;;;;6.72;2.70;;;19.70;99.90;;;;;;5010320;28;20036;-63
2023/04/28 08:39:30;;;;;;;4.18;2.22;;;19.60;99.90;;;;;;5023081;28;20056;-62
2023/04/28 08:41:57;;;;;;;8.43;2.22;;;19.60;99.90;;;;;;5024953;28;20034;-63
2023/04/28 08:44:25;;;;;;;4.30;2.10;;;19.50;99.90;;;;;;5027091;28;20017;-64
2023/04/28 08:46:56;;;;;;;4.75;2.40;;;19.50;99.90;;;;;;5036283;28;20084;-63
2023/04/28 08:49:32;;;;;;;5.13;2.40;;;19.50;99.90;;;;;;5048771;28;20021;-63
2023/04/28 08:52:00;;;;;;;3.88;2.08;;;19.50;99.90;;;;;;5046936;28;20025;-63
2023/04/28 08:54:37;;;;;;;7.10;2.10;;;19.50;99.90;;;;;;5024269;28;20079;-63
2023/04/28 08:57:07;;;;;;;10.13;2.80;;;19.50;99.90;;;;;;5045012;28;20029;-62
2023/04/28 08:59:40;;;;;;;7.88;3.30;;;19.60;99.90;;;;;;5029816;28;20033;-62
2023/04/28 09:02:08;;;;;;;7.93;3.22;;;19.60;99.90;;;;;;5028852;28;20029;-63
2023/04/28 09:04:36;;;;;;;7.13;2.58;;;19.60;99.90;;;;;;5039966;28;20504;-63
2023/04/28 09:07:10;;;;;;;7.82;2.20;;;19.50;99.90;;;;;;5048210;28;20033;-64
2023/04/28 09:09:37;;;;;;;5.97;2.53;;;19.60;99.90;;;;;;5046923;28;20029;-63
2023/04/28 09:12:05;;;;;;;7.50;1.92;;;19.50;99.90;;;;;;5045587;28;20024;-63
2023/04/28 09:14:34;;;;;;;7.15;1.70;;;19.50;99.90;;;;;;5039626;28;20070;-63
2023/04/28 09:17:02;;;;;;;5.25;1.88;;;19.50;99.90;;;;;;5026545;28;20096;-64
2023/04/28 09:19:37;;;;;;;4.72;1.55;;;19.50;99.90;;;;;;5045069;28;20025;-63
2023/04/28 09:22:05;;;;;;;4.80;1.77;;;19.50;99.90;;;;;;5047719;28;20393;-63
2023/04/28 09:24:42;;;;;;;7.32;2.13;;;19.50;99.90;;;;;;5034703;28;20410;-63
2023/04/28 09:27:11;;;;;;;5.35;2.30;;;19.50;99.90;;;;;;5045558;28;20044;-62
2023/04/28 09:29:51;;;;;;;6.43;2.15;;;19.40;99.90;;;;;;5023564;28;20053;-64
2023/04/28 09:32:22;;;;;;;7.07;2.63;;;19.40;99.90;;;;;;5040600;28;20421;-63
2023/04/28 09:34:57;;;;;;;7.28;2.50;;;19.40;99.90;;;;;;5040807;28;20025;-63
2023/04/28 09:37:29;;;;;;;6.32;2.25;;;19.30;99.90;;;;;;5040300;28;20029;-63
2023/04/28 09:40:03;;;;;;;4.72;1.77;;;19.30;99.90;;;;;;5042539;28;20040;-64
2023/04/28 09:42:45;;;;;;;6.57;1.85;;;19.30;99.90;;;;;;5043878;28;20029;-63
2023/04/28 09:45:16;;;;;;;3.17;1.50;;;19.30;99.90;;;;;;5036207;28;20025;-63
2023/04/28 09:47:46;;;;;;;4.25;1.83;;;19.30;99.90;;;;;;5036527;28;20033;-63
2023/04/28 09:50:17;;;;;;;6.15;2.10;;;19.40;99.90;;;;;;5050293;28;21510;-63
2023/04/28 09:52:55;;;;;;;6.90;2.42;;;19.40;99.90;;;;;;5015243;28;20049;-63
2023/04/28 09:55:23;;;;;;;3.58;1.63;;;19.40;99.90;;;;;;5042315;28;20512;-63
2023/04/28 09:57:55;;;;;;;3.58;1.45;;;19.30;99.90;;;;;;5046670;28;20029;-63
2023/04/28 10:00:23;;;;;;;4.93;2.03;;;19.30;99.90;;;;;;5047132;28;20051;-65
2023/04/28 10:02:51;;;;;;;5.90;1.90;;;19.20;99.90;;;;;;5045028;28;20517;-65
2023/04/28 10:05:20;;;;;;;2.80;1.67;;;19.20;99.90;;;;;;5047303;28;20087;-65
2023/04/28 10:07:47;;;;;;;4.43;2.10;;;19.20;99.90;;;;;;5046321;28;20100;-66
2023/04/28 10:10:15;;;;;;;5.90;2.33;;;19.20;99.90;;;;;;5046634;28;20033;-65
2023/04/28 10:12:43;;;;;;;6.05;2.60;;;19.20;99.90;;;;;;5046375;28;20025;-65
2023/04/28 10:15:13;;;;;;;6.22;2.80;;;19.20;99.90;;;;;;5045549;28;20040;-65
2023/04/28 10:17:40;;;;;;;9.35;3.00;;;19.10;99.90;;;;;;5027174;28;20021;-65
2023/04/28 10:20:08;;;;;;;5.72;2.53;;;19.10;99.90;;;;;;5043979;28;20531;-66
2023/04/28 10:22:57;;;;;;;4.35;1.70;;;19.20;99.90;;;;;;5028399;28;20075;-65
2023/04/28 10:25:34;;;;;;;3.42;1.83;;;19.20;99.90;;;;;;5042991;28;20533;-67
2023/04/28 10:28:05;;;;;;;3.13;1.33;;;19.10;99.90;;;;;;5042447;28;20025;-65
2023/04/28 10:30:33;;;;;;;3.10;1.58;;;19.00;99.90;;;;;;5046745;28;20592;-65
2023/04/28 10:33:13;;;;;;;3.90;1.63;;;19.00;99.90;;;;;;5046570;28;20428;-66
2023/04/28 10:35:46;;;;;;;3.65;1.75;;;18.90;99.90;;;;;;5046442;28;20037;-67
2023/04/28 10:38:17;;;;;;;4.22;1.58;;;18.70;99.90;;;;;;5028256;28;20817;-67
2023/04/28 10:40:45;;;;;;;4.47;1.42;;;18.60;99.90;;;;;;5043403;28;20437;-67
2023/04/28 10:43:32;;;;;;;3.65;1.85;;;18.50;99.90;;;;;;5046107;28;20029;-66
2023/04/28 10:46:04;;;;;;;3.50;1.60;;;18.40;99.90;;;;;;5045782;28;20040;-62
2023/04/28 10:48:36;;;;;;;5.53;1.98;;;18.30;99.90;;;;;;5024559;28;20049;-65
2023/04/28 10:51:08;;;;;;;7.80;2.42;;;18.20;99.90;;;;;;5044776;28;20547;-65
2023/04/28 10:53:44;;;;;;;5.28;2.17;;;18.10;99.90;;;;;;5018838;28;20024;-65
2023/04/28 10:56:26;;;;;;;6.93;3.00;;;18.00;99.90;;;;;;5035848;28;20056;-64
2023/04/28 10:59:01;;;;;;;5.20;2.40;;;17.90;99.90;;;;;;5018845;28;20807;-64
2023/04/28 11:01:30;;;;;;;8.18;2.53;;;17.90;99.90;;;;;;5034206;28;20580;-64
2023/04/28 11:03:59;;;;;;;9.05;2.83;;;17.80;99.90;;;;;;5036616;28;20025;-64
2023/04/28 11:06:38;;;;;;;6.68;2.83;;;17.70;99.90;;;;;;5038459;28;20028;-65
2023/04/28 11:09:18;;;;;;;3.85;2.10;;;17.70;99.90;;;;;;5017589;28;20052;-65
2023/04/28 11:12:04;;;;;;;4.78;2.17;;;17.60;99.90;;;;;;5017921;28;20399;-60
2023/04/28 11:14:33;;;;;;;6.47;3.08;;;17.60;99.90;;;;;;5022120;28;20063;-60
2023/04/28 11:17:07;;;;;;;7.50;2.53;;;17.50;99.90;;;;;;5018023;28;20136;-58
2023/04/28 11:19:40;;;;;;;6.45;2.47;;;17.60;99.90;;;;;;5037418;28;20060;-57
2023/04/28 11:22:15;;;;;;;7.55;2.60;;;17.60;99.90;;;;;;5040054;28;20389;-58
2023/04/28 11:24:59;;;;;;;5.70;2.42;;;17.60;99.90;;;;;;5044488;28;20025;-60
2023/04/28 11:27:28;;;;;;;5.82;2.65;;;17.60;99.90;;;;;;5052996;28;20524;-60
2023/04/28 11:29:56;;;;;;;5.45;2.13;;;17.60;99.90;;;;;;5033236;28;20029;-60
2023/04/28 11:32:28;;;;;;;5.07;2.35;;;17.60;99.90;;;;;;5028378;28;20028;-60
2023/04/28 11:34:56;;;;;;;4.15;2.17;;;17.60;99.90;;;;;;5041731;28;20044;-59
2023/04/28 11:37:24;;;;;;;6.07;1.95;;;17.60;99.90;;;;;;5062704;28;20086;-59
2023/04/28 11:39:52;;;;;;;5.88;2.35;;;17.60;99.90;;;;;;5050805;28;20033;-59
2023/04/28 11:42:19;;;;;;;6.13;3.13;;;17.50;99.90;;;;;;5051464;28;20511;-59
2023/04/28 11:44:53;;;;;;;5.25;2.55;;;17.50;99.90;;;;;;5048537;28;20025;-59
2023/04/28 11:47:32;;;;;;;5.57;2.85;;;17.50;99.90;;;;;;5050733;28;20044;-59
2023/04/28 11:50:00;;;;;;;3.88;2.22;;;17.50;99.90;;;;;;5030851;28;20025;-60
2023/04/28 11:52:28;;;;;;;6.00;1.92;;;17.40;99.90;;;;;;5044162;28;20025;-64
2023/04/28 11:54:58;;;;;;;4.30;2.05;;;17.40;99.90;;;;;;5048951;28;20041;-60
2023/04/28 11:57:26;;;;;;;6.97;2.10;;;17.40;99.90;;;;;;5034018;28;20091;-59
2023/04/28 11:59:54;;;;;;;4.32;1.90;;;17.40;99.90;;;;;;5050557;28;20021;-60
2023/04/28 12:02:28;;;;;;;4.80;1.90;;;17.40;99.90;;;;;;5032513;28;20025;-60
2023/04/28 12:04:56;;;;;;;7.70;1.70;;;17.50;99.90;;;;;;5069033;28;20064;-60
2023/04/28 12:07:24;;;;;;;4.18;2.38;;;17.60;99.90;;;;;;5050758;28;20021;-59
2023/04/28 12:10:10;;;;;;;3.10;1.40;;;17.60;99.90;;;;;;5032772;28;20029;-60
2023/04/28 12:12:38;;;;;;;3.25;1.60;;;17.70;99.90;;;;;;5048819;28;20025;-60
2023/04/28 12:15:07;;;;;;;4.25;1.92;;;17.70;99.90;;;;;;5051126;28;20033;-62
2023/04/28 12:17:40;;;;;;;3.67;1.73;;;17.70;99.90;;;;;;5051183;28;20013;-60
2023/04/28 12:20:29;;;;;;;3.10;1.80;;;17.80;99.90;;;;;;5051416;28;20029;-59
2023/04/28 12:22:57;;;;;;;3.25;1.58;;;17.70;99.90;;;;;;5045162;28;20021;-59
2023/04/28 12:25:24;;;;;;;4.22;1.73;;;17.80;99.90;;;;;;5050085;28;20028;-60
2023/04/28 12:28:09;;;;;;;6.93;2.08;;;17.70;99.90;;;;;;5049950;28;20039;-60
2023/04/28 12:30:38;;;;;;;10.18;2.13;;;17.70;99.90;;;;;;5037429;28;20082;-60
2023/04/28 12:33:06;;;;;;;2.45;1.38;;;17.60;99.90;;;;;;5050915;28;20029;-60
2023/04/28 12:35:33;;;;;;;7.00;1.92;;;17.70;99.90;;;;;;5049589;28;20044;-60
2023/04/28 12:38:00;;;;;;;4.00;2.22;;;17.70;99.90;;;;;;5032362;28;20021;-60
2023/04/28 12:40:28;;;;;;;6.55;1.92;;;17.60;99.90;;;;;;5047883;28;20049;-60
2023/04/28 12:42:55;;;;;;;5.40;2.03;;;17.60;99.90;;;;;;5034925;28;20043;-60
2023/04/28 12:45:23;;;;;;;5.32;2.38;;;17.60;99.90;;;;;;5050042;28;20025;-60
2023/04/28 12:47:50;;;;;;;8.70;2.75;;;17.50;99.90;;;;;;5049943;28;20041;-60
2023/04/28 12:50:17;;;;;;;3.67;2.38;;;17.50;99.90;;;;;;5047146;28;20473;-60
2023/04/28 12:52:44;;;;;;;6.28;2.30;;;17.50;99.90;;;;;;5036794;28;20032;-60
2023/04/28 12:55:12;;;;;;;6.93;2.28;;;17.50;99.90;;;;;;5050870;28;20413;-60